sensor_id;sensor_type;location;lat;lon;timestamp;pressure;altitude;pressure_sealevel;temperature;humidity
48926;BME280;39838;59.938;30.642;2023-05-14T00:01:56;101836.69;;;11.94;54.33
48926;BME280;39838;59.938;30.642;2023-05-14T00:04:23;101846.28;;;11.98;53.50
48926;BME280;39838;59.938;30.642;2023-05-14T00:06:51;101845.47;;;12.01;53.46
48926;BME280;39838;59.938;30.642;2023-05-14T00:09:19;101841.13;;;12.01;53.86
48926;BME280;39838;59.938;30.642;2023-05-14T00:11:47;101842.03;;;12.05;53.74
48926;BME280;39838;59.938;30.642;2023-05-14T00:14:14;101848.16;;;12.07;53.82
48926;BME280;39838;59.938;30.642;2023-05-14T00:16:41;101837.75;;;12.09;53.72
48926;BME280;39838;59.938;30.642;2023-05-14T00:19:09;101829.97;;;12.10;53.92
48926;BME280;39838;59.938;30.642;2023-05-14T00:21:36;101836.03;;;12.11;53.68
48926;BME280;39838;59.938;30.642;2023-05-14T00:24:04;101833.44;;;12.12;54.17
48926;BME280;39838;59.938;30.642;2023-05-14T00:26:32;101836.03;;;12.11;54.30
48926;BME280;39838;59.938;30.642;2023-05-14T00:29:00;101834.28;;;12.10;54.22
48926;BME280;39838;59.938;30.642;2023-05-14T00:31:27;101826.47;;;12.08;53.95
48926;BME280;39838;59.938;30.642;2023-05-14T00:33:54;101829.06;;;12.08;54.63
48926;BME280;39838;59.938;30.642;2023-05-14T00:36:22;101830.81;;;12.09;54.44
48926;BME280;39838;59.938;30.642;2023-05-14T00:38:49;101834.28;;;12.10;54.25
48926;BME280;39838;59.938;30.642;2023-05-14T00:41:16;101839.50;;;12.10;54.33
48926;BME280;39838;59.938;30.642;2023-05-14T00:43:45;101837.78;;;12.12;54.47
48926;BME280;39838;59.938;30.642;2023-05-14T00:46:13;101826.41;;;12.05;54.11
48926;BME280;39838;59.938;30.642;2023-05-14T00:48:40;101845.66;;;12.13;54.36
48926;BME280;39838;59.938;30.642;2023-05-14T00:51:08;101842.13;;;12.11;54.70
48926;BME280;39838;59.938;30.642;2023-05-14T00:53:35;101849.06;;;12.09;54.31
48926;BME280;39838;59.938;30.642;2023-05-14T00:56:04;101848.16;;;12.07;53.97
48926;BME280;39838;59.938;30.642;2023-05-14T00:58:31;101853.31;;;12.06;53.84
48926;BME280;39838;59.938;30.642;2023-05-14T01:01:03;101857.66;;;12.05;54.43
48926;BME280;39838;59.938;30.642;2023-05-14T01:03:30;101858.53;;;12.06;53.72
48926;BME280;39838;59.938;30.642;2023-05-14T01:06:03;101851.53;;;12.00;53.62
48926;BME280;39838;59.938;30.642;2023-05-14T01:08:39;101855.88;;;11.99;53.71
48926;BME280;39838;59.938;30.642;2023-05-14T01:11:12;101851.47;;;11.97;53.87
48926;BME280;39838;59.938;30.642;2023-05-14T01:13:47;101849.69;;;11.94;53.69
48926;BME280;39838;59.938;30.642;2023-05-14T01:16:19;101846.19;;;11.92;54.20
48926;BME280;39838;59.938;30.642;2023-05-14T01:18:49;101830.47;;;11.86;54.27
48926;BME280;39838;59.938;30.642;2023-05-14T01:21:41;101838.25;;;11.85;54.36
48926;BME280;39838;59.938;30.642;2023-05-14T01:24:09;101836.50;;;11.85;54.67
48926;BME280;39838;59.938;30.642;2023-05-14T01:26:36;101832.16;;;11.84;54.52
48926;BME280;39838;59.938;30.642;2023-05-14T01:29:14;101829.56;;;11.84;54.74
48926;BME280;39838;59.938;30.642;2023-05-14T01:31:43;101825.19;;;11.83;55.36
48926;BME280;39838;59.938;30.642;2023-05-14T01:34:13;101819.88;;;11.77;55.25
48926;BME280;39838;59.938;30.642;2023-05-14T01:36:42;101834.75;;;11.84;55.00
48926;BME280;39838;59.938;30.642;2023-05-14T01:39:11;101821.59;;;11.78;55.08
48926;BME280;39838;59.938;30.642;2023-05-14T01:41:41;101822.50;;;11.79;55.10
48926;BME280;39838;59.938;30.642;2023-05-14T01:44:08;101818.00;;;11.70;55.54
48926;BME280;39838;59.938;30.642;2023-05-14T01:46:36;101824.88;;;11.65;55.59
48926;BME280;39838;59.938;30.642;2023-05-14T01:49:04;101817.00;;;11.60;55.35
48926;BME280;39838;59.938;30.642;2023-05-14T01:51:31;101817.88;;;11.61;55.12
48926;BME280;39838;59.938;30.642;2023-05-14T01:54:00;101820.50;;;11.64;55.42
48926;BME280;39838;59.938;30.642;2023-05-14T01:56:27;101816.25;;;11.69;55.47
48926;BME280;39838;59.938;30.642;2023-05-14T01:58:55;101819.81;;;11.72;55.55
48926;BME280;39838;59.938;30.642;2023-05-14T02:01:22;101832.88;;;11.75;55.44
48926;BME280;39838;59.938;30.642;2023-05-14T02:03:51;101830.19;;;11.71;55.55
48926;BME280;39838;59.938;30.642;2023-05-14T02:06:18;101837.22;;;11.78;55.24
48926;BME280;39838;59.938;30.642;2023-05-14T02:08:45;101846.09;;;11.86;55.46
48926;BME280;39838;59.938;30.642;2023-05-14T02:11:14;101839.28;;;11.94;55.32
48926;BME280;39838;59.938;30.642;2023-05-14T02:13:41;101843.72;;;12.01;55.16
48926;BME280;39838;59.938;30.642;2023-05-14T02:16:09;101844.69;;;12.07;54.80
48926;BME280;39838;59.938;30.642;2023-05-14T02:18:36;101846.53;;;12.14;54.79
48926;BME280;39838;59.938;30.642;2023-05-14T02:21:03;101839.63;;;12.19;55.01
48926;BME280;39838;59.938;30.642;2023-05-14T02:23:31;101850.22;;;12.28;54.60
48926;BME280;39838;59.938;30.642;2023-05-14T02:25:58;101838.06;;;12.30;54.28
48926;BME280;39838;59.938;30.642;2023-05-14T02:28:27;101834.56;;;12.28;54.13
48926;BME280;39838;59.938;30.642;2023-05-14T02:30:57;101838.03;;;12.27;54.19
48926;BME280;39838;59.938;30.642;2023-05-14T02:33:25;101834.59;;;12.31;54.22
48926;BME280;39838;59.938;30.642;2023-05-14T02:35:52;101826.94;;;12.40;53.88
48926;BME280;39838;59.938;30.642;2023-05-14T02:38:19;101821.84;;;12.52;53.97
48926;BME280;39838;59.938;30.642;2023-05-14T02:40:47;101823.66;;;12.56;53.73
48926;BME280;39838;59.938;30.642;2023-05-14T02:43:14;101833.22;;;12.57;53.63
48926;BME280;39838;59.938;30.642;2023-05-14T02:45:43;101841.03;;;12.54;53.71
48926;BME280;39838;59.938;30.642;2023-05-14T02:48:10;101834.94;;;12.55;53.79
48926;BME280;39838;59.938;30.642;2023-05-14T02:50:37;101834.94;;;12.55;53.73
48926;BME280;39838;59.938;30.642;2023-05-14T02:53:05;101835.81;;;12.57;53.74
48926;BME280;39838;59.938;30.642;2023-05-14T02:55:32;101843.78;;;12.67;53.58
48926;BME280;39838;59.938;30.642;2023-05-14T02:58:00;101838.63;;;12.73;53.56
48926;BME280;39838;59.938;30.642;2023-05-14T03:00:27;101841.38;;;12.82;53.37
48926;BME280;39838;59.938;30.642;2023-05-14T03:02:56;101843.13;;;12.84;52.83
48926;BME280;39838;59.938;30.642;2023-05-14T03:05:23;101846.69;;;12.91;52.83
48926;BME280;39838;59.938;30.642;2023-05-14T03:07:51;101845.97;;;13.04;52.56
48926;BME280;39838;59.938;30.642;2023-05-14T03:10:18;101844.41;;;13.20;51.99
48926;BME280;39838;59.938;30.642;2023-05-14T03:12:46;101845.41;;;13.28;51.54
48926;BME280;39838;59.938;30.642;2023-05-14T03:15:14;101838.56;;;13.43;51.50
48926;BME280;39838;59.938;30.642;2023-05-14T03:17:41;101846.53;;;13.59;51.10
48926;BME280;39838;59.938;30.642;2023-05-14T03:20:11;101846.66;;;13.75;50.69
48926;BME280;39838;59.938;30.642;2023-05-14T03:22:39;101843.28;;;13.86;50.20
48926;BME280;39838;59.938;30.642;2023-05-14T03:25:07;101840.75;;;13.97;49.80
48926;BME280;39838;59.938;30.642;2023-05-14T03:27:34;101839.06;;;14.07;49.78
48926;BME280;39838;59.938;30.642;2023-05-14T03:30:02;101834.72;;;14.09;49.15
48926;BME280;39838;59.938;30.642;2023-05-14T03:32:32;101831.22;;;14.02;49.14
48926;BME280;39838;59.938;30.642;2023-05-14T03:34:59;101822.38;;;13.85;49.26
48926;BME280;39838;59.938;30.642;2023-05-14T03:37:28;101824.00;;;13.71;49.54
48926;BME280;39838;59.938;30.642;2023-05-14T03:39:56;101832.66;;;13.65;49.80
48926;BME280;39838;59.938;30.642;2023-05-14T03:42:23;101829.13;;;13.60;49.65
48926;BME280;39838;59.938;30.642;2023-05-14T03:44:50;101835.22;;;13.60;50.08
48926;BME280;39838;59.938;30.642;2023-05-14T03:47:18;101841.31;;;13.59;49.82
48926;BME280;39838;59.938;30.642;2023-05-14T03:49:45;101843.19;;;13.73;49.90
48926;BME280;39838;59.938;30.642;2023-05-14T03:52:12;101841.53;;;13.88;49.42
48926;BME280;39838;59.938;30.642;2023-05-14T03:54:41;101841.69;;;14.02;49.33
48926;BME280;39838;59.938;30.642;2023-05-14T03:57:09;101846.91;;;14.08;48.92
48926;BME280;39838;59.938;30.642;2023-05-14T03:59:36;101837.28;;;14.00;48.62
48926;BME280;39838;59.938;30.642;2023-05-14T04:02:03;101834.66;;;14.00;48.85
48926;BME280;39838;59.938;30.642;2023-05-14T04:04:30;101848.69;;;14.09;49.66
48926;BME280;39838;59.938;30.642;2023-05-14T04:06:58;101846.13;;;14.20;48.72
48926;BME280;39838;59.938;30.642;2023-05-14T04:09:25;101849.63;;;14.19;49.06
48926;BME280;39838;59.938;30.642;2023-05-14T04:11:54;101845.25;;;14.16;49.17
48926;BME280;39838;59.938;30.642;2023-05-14T04:14:21;101847.84;;;14.13;49.34
48926;BME280;39838;59.938;30.642;2023-05-14T04:16:49;101846.91;;;14.07;49.39
48926;BME280;39838;59.938;30.642;2023-05-14T04:19:16;101851.31;;;14.11;49.14
48926;BME280;39838;59.938;30.642;2023-05-14T04:21:43;101853.97;;;14.18;49.15
48926;BME280;39838;59.938;30.642;2023-05-14T04:24:11;101854.84;;;14.19;49.51
48926;BME280;39838;59.938;30.642;2023-05-14T04:26:38;101852.22;;;14.20;49.15
48926;BME280;39838;59.938;30.642;2023-05-14T04:29:07;101847.03;;;14.24;49.26
48926;BME280;39838;59.938;30.642;2023-05-14T04:31:35;101829.53;;;14.13;49.24
48926;BME280;39838;59.938;30.642;2023-05-14T04:34:02;101848.75;;;14.20;49.07
48926;BME280;39838;59.938;30.642;2023-05-14T04:36:30;101846.97;;;14.13;49.27
48926;BME280;39838;59.938;30.642;2023-05-14T04:38:57;101824.25;;;14.04;49.20
48926;BME280;39838;59.938;30.642;2023-05-14T04:41:24;101831.28;;;14.14;49.43
48926;BME280;39838;59.938;30.642;2023-05-14T04:43:54;101812.13;;;14.09;49.53
48926;BME280;39838;59.938;30.642;2023-05-14T04:46:23;101829.66;;;14.32;49.35
48926;BME280;39838;59.938;30.642;2023-05-14T04:48:51;101829.75;;;14.47;49.10
48926;BME280;39838;59.938;30.642;2023-05-14T04:51:18;101829.84;;;14.62;48.80
48926;BME280;39838;59.938;30.642;2023-05-14T04:53:45;101822.91;;;14.70;48.63
48926;BME280;39838;59.938;30.642;2023-05-14T04:56:13;101829.06;;;14.85;48.04
48926;BME280;39838;59.938;30.642;2023-05-14T04:58:40;101821.22;;;14.95;48.46
48926;BME280;39838;59.938;30.642;2023-05-14T05:01:07;101824.75;;;15.02;48.00
48926;BME280;39838;59.938;30.642;2023-05-14T05:03:36;101820.41;;;15.07;47.92
48926;BME280;39838;59.938;30.642;2023-05-14T05:06:03;101826.53;;;15.14;47.38
48926;BME280;39838;59.938;30.642;2023-05-14T05:08:31;101823.88;;;15.03;47.46
48926;BME280;39838;59.938;30.642;2023-05-14T05:10:58;101817.78;;;14.98;47.22
48926;BME280;39838;59.938;30.642;2023-05-14T05:13:25;101826.53;;;15.12;47.17
48926;BME280;39838;59.938;30.642;2023-05-14T05:15:53;101835.28;;;15.17;47.12
48926;BME280;39838;59.938;30.642;2023-05-14T05:18:20;101832.63;;;15.23;47.14
48926;BME280;39838;59.938;30.642;2023-05-14T05:20:49;101828.28;;;15.28;46.84
48926;BME280;39838;59.938;30.642;2023-05-14T05:23:16;101823.09;;;15.39;46.55
48926;BME280;39838;59.938;30.642;2023-05-14T05:25:43;101832.66;;;15.51;46.63
48926;BME280;39838;59.938;30.642;2023-05-14T05:28:11;101824.00;;;15.63;46.32
48926;BME280;39838;59.938;30.642;2023-05-14T05:30:38;101815.25;;;15.68;45.88
48926;BME280;39838;59.938;30.642;2023-05-14T05:33:06;101810.88;;;15.82;45.61
48926;BME280;39838;59.938;30.642;2023-05-14T05:35:33;101816.13;;;15.89;44.94
48926;BME280;39838;59.938;30.642;2023-05-14T05:38:02;101828.31;;;16.05;44.65
48926;BME280;39838;59.938;30.642;2023-05-14T05:40:29;101832.66;;;16.18;44.64
48926;BME280;39838;59.938;30.642;2023-05-14T05:42:56;101830.84;;;16.43;44.14
48926;BME280;39838;59.938;30.642;2023-05-14T05:45:24;101828.22;;;16.54;43.97
48926;BME280;39838;59.938;30.642;2023-05-14T05:47:51;101835.16;;;16.64;43.61
48926;BME280;39838;59.938;30.642;2023-05-14T05:50:18;101835.16;;;16.70;43.25
48926;BME280;39838;59.938;30.642;2023-05-14T05:52:46;101833.41;;;16.75;43.16
48926;BME280;39838;59.938;30.642;2023-05-14T05:55:15;101828.13;;;16.81;42.95
48926;BME280;39838;59.938;30.642;2023-05-14T05:57:42;101834.09;;;17.06;42.51
48926;BME280;39838;59.938;30.642;2023-05-14T06:00:10;101820.84;;;17.29;41.90
48926;BME280;39838;59.938;30.642;2023-05-14T06:02:41;101827.75;;;17.42;41.90
48926;BME280;39838;59.938;30.642;2023-05-14T06:05:09;101829.44;;;17.51;41.37
48926;BME280;39838;59.938;30.642;2023-05-14T06:07:36;101827.75;;;17.42;40.80
48926;BME280;39838;59.938;30.642;2023-05-14T06:10:05;101827.75;;;17.39;40.61
48926;BME280;39838;59.938;30.642;2023-05-14T06:12:34;101820.78;;;17.41;40.88
48926;BME280;39838;59.938;30.642;2023-05-14T06:15:01;101820.72;;;17.44;40.41
48926;BME280;39838;59.938;30.642;2023-05-14T06:17:32;101824.22;;;17.46;40.91
48926;BME280;39838;59.938;30.642;2023-05-14T06:20:00;101825.00;;;17.58;40.51
48926;BME280;39838;59.938;30.642;2023-05-14T06:22:29;101816.19;;;17.68;40.47
48926;BME280;39838;59.938;30.642;2023-05-14T06:24:56;101823.03;;;17.89;40.11
48926;BME280;39838;59.938;30.642;2023-05-14T06:27:24;101816.63;;;18.14;39.92
48926;BME280;39838;59.938;30.642;2023-05-14T06:29:52;101820.69;;;18.44;39.70
48926;BME280;39838;59.938;30.642;2023-05-14T06:32:20;101802.06;;;18.60;39.25
48926;BME280;39838;59.938;30.642;2023-05-14T06:34:47;101815.88;;;18.80;38.92
48926;BME280;39838;59.938;30.642;2023-05-14T06:37:14;101806.94;;;18.93;38.72
48926;BME280;39838;59.938;30.642;2023-05-14T06:39:42;101813.91;;;18.97;38.71
48926;BME280;39838;59.938;30.642;2023-05-14T06:42:14;101813.91;;;18.96;38.37
48926;BME280;39838;59.938;30.642;2023-05-14T06:44:42;101817.16;;;19.15;38.46
48926;BME280;39838;59.938;30.642;2023-05-14T06:47:11;101810.75;;;19.32;37.94
48926;BME280;39838;59.938;30.642;2023-05-14T06:49:38;101807.31;;;19.27;38.04
48926;BME280;39838;59.938;30.642;2023-05-14T06:52:06;101808.97;;;19.33;37.40
48926;BME280;39838;59.938;30.642;2023-05-14T06:54:33;101813.19;;;19.45;37.62
48926;BME280;39838;59.938;30.642;2023-05-14T06:57:00;101816.50;;;19.57;37.49
48926;BME280;39838;59.938;30.642;2023-05-14T06:59:28;101815.28;;;19.77;37.26
48926;BME280;39838;59.938;30.642;2023-05-14T07:01:55;101817.91;;;19.80;37.30
48926;BME280;39838;59.938;30.642;2023-05-14T07:04:24;101823.91;;;19.88;37.37
48926;BME280;39838;59.938;30.642;2023-05-14T07:06:51;101828.00;;;20.04;37.17
48926;BME280;39838;59.938;30.642;2023-05-14T07:09:18;101835.88;;;20.07;37.06
48926;BME280;39838;59.938;30.642;2023-05-14T07:11:46;101837.16;;;19.85;36.20
48926;BME280;39838;59.938;30.642;2023-05-14T07:14:13;101836.66;;;19.61;36.88
48926;BME280;39838;59.938;30.642;2023-05-14T07:16:41;101837.56;;;19.60;37.25
48926;BME280;39838;59.938;30.642;2023-05-14T07:19:10;101833.84;;;19.71;37.26
48926;BME280;39838;59.938;30.642;2023-05-14T07:21:39;101832.13;;;19.70;37.20
48926;BME280;39838;59.938;30.642;2023-05-14T07:24:06;101830.34;;;19.72;36.87
48926;BME280;39838;59.938;30.642;2023-05-14T07:26:34;101838.06;;;19.82;36.56
48926;BME280;39838;59.938;30.642;2023-05-14T07:29:01;101835.34;;;19.87;36.58
48926;BME280;39838;59.938;30.642;2023-05-14T07:31:28;101845.03;;;19.86;37.05
48926;BME280;39838;59.938;30.642;2023-05-14T07:33:56;101837.91;;;19.90;36.93
48926;BME280;39838;59.938;30.642;2023-05-14T07:36:23;101832.75;;;19.84;36.66
48926;BME280;39838;59.938;30.642;2023-05-14T07:38:52;101833.84;;;19.72;37.35
48926;BME280;39838;59.938;30.642;2023-05-14T07:41:19;101835.50;;;19.78;37.22
48926;BME280;39838;59.938;30.642;2023-05-14T07:43:46;101831.94;;;19.80;37.25
48926;BME280;39838;59.938;30.642;2023-05-14T07:46:14;101833.56;;;19.89;37.20
48926;BME280;39838;59.938;30.642;2023-05-14T07:48:41;101830.81;;;19.95;37.15
48926;BME280;39838;59.938;30.642;2023-05-14T07:51:08;101832.63;;;19.93;36.75
48926;BME280;39838;59.938;30.642;2023-05-14T07:53:36;101837.97;;;19.88;36.68
48926;BME280;39838;59.938;30.642;2023-05-14T07:56:06;101832.03;;;19.76;36.27
48926;BME280;39838;59.938;30.642;2023-05-14T07:58:33;101829.69;;;19.57;36.46
48926;BME280;39838;59.938;30.642;2023-05-14T08:01:01;101828.16;;;19.41;36.83
48926;BME280;39838;59.938;30.642;2023-05-14T08:03:31;101829.25;;;19.28;37.04
48926;BME280;39838;59.938;30.642;2023-05-14T08:05:59;101831.94;;;19.23;37.13
48926;BME280;39838;59.938;30.642;2023-05-14T08:08:26;101827.63;;;19.19;37.79
48926;BME280;39838;59.938;30.642;2023-05-14T08:10:53;101826.72;;;19.20;37.97
48926;BME280;39838;59.938;30.642;2023-05-14T08:13:22;101803.13;;;19.13;38.28
48926;BME280;39838;59.938;30.642;2023-05-14T08:15:49;101818.69;;;19.29;38.08
48926;BME280;39838;59.938;30.642;2023-05-14T08:18:17;101810.56;;;19.43;37.86
48926;BME280;39838;59.938;30.642;2023-05-14T08:20:44;101802.53;;;19.52;37.79
48926;BME280;39838;59.938;30.642;2023-05-14T08:23:11;101804.13;;;19.62;37.77
48926;BME280;39838;59.938;30.642;2023-05-14T08:25:39;101800.38;;;19.76;37.40
48926;BME280;39838;59.938;30.642;2023-05-14T08:28:06;101804.53;;;19.89;37.31
48926;BME280;39838;59.938;30.642;2023-05-14T08:30:35;101814.97;;;19.95;37.43
48926;BME280;39838;59.938;30.642;2023-05-14T08:33:02;101812.13;;;20.07;36.88
48926;BME280;39838;59.938;30.642;2023-05-14T08:35:29;101807.53;;;20.17;36.97
48926;BME280;39838;59.938;30.642;2023-05-14T08:37:57;101809.19;;;20.23;36.50
48926;BME280;39838;59.938;30.642;2023-05-14T08:40:25;101806.56;;;20.23;36.56
48926;BME280;39838;59.938;30.642;2023-05-14T08:42:53;101809.22;;;20.21;36.36
48926;BME280;39838;59.938;30.642;2023-05-14T08:45:26;101802.09;;;20.25;36.35
48926;BME280;39838;59.938;30.642;2023-05-14T08:47:56;101808.25;;;20.27;35.96
48926;BME280;39838;59.938;30.642;2023-05-14T08:50:24;101804.78;;;20.23;36.06
48926;BME280;39838;59.938;30.642;2023-05-14T08:52:52;101814.31;;;20.30;35.94
48926;BME280;39838;59.938;30.642;2023-05-14T08:55:20;101807.81;;;20.50;35.93
48926;BME280;39838;59.938;30.642;2023-05-14T08:57:48;101805.47;;;20.76;35.37
48926;BME280;39838;59.938;30.642;2023-05-14T09:00:15;101810.34;;;20.96;35.28
48926;BME280;39838;59.938;30.642;2023-05-14T09:02:43;101807.22;;;21.16;35.14
48926;BME280;39838;59.938;30.642;2023-05-14T09:05:14;101804.06;;;21.39;34.67
48926;BME280;39838;59.938;30.642;2023-05-14T09:07:43;101800.78;;;21.65;34.18
48926;BME280;39838;59.938;30.642;2023-05-14T09:10:11;101798.78;;;21.73;33.95
48926;BME280;39838;59.938;30.642;2023-05-14T09:12:40;101797.28;;;21.64;34.12
48926;BME280;39838;59.938;30.642;2023-05-14T09:15:07;101805.16;;;21.66;34.09
48926;BME280;39838;59.938;30.642;2023-05-14T09:17:35;101794.50;;;21.69;33.79
48926;BME280;39838;59.938;30.642;2023-05-14T09:20:02;101794.47;;;21.70;33.66
48926;BME280;39838;59.938;30.642;2023-05-14T09:22:33;101796.47;;;21.61;33.43
48926;BME280;39838;59.938;30.642;2023-05-14T09:25:02;101777.09;;;21.60;33.40
48926;BME280;39838;59.938;30.642;2023-05-14T09:27:32;101778.44;;;21.76;33.11
48926;BME280;39838;59.938;30.642;2023-05-14T09:30:05;101776.44;;;21.85;32.75
48926;BME280;39838;59.938;30.642;2023-05-14T09:32:37;101782.75;;;22.13;32.77
48926;BME280;39838;59.938;30.642;2023-05-14T09:35:12;101777.69;;;22.37;32.76
48926;BME280;39838;59.938;30.642;2023-05-14T09:37:44;101773.03;;;22.45;32.53
48926;BME280;39838;59.938;30.642;2023-05-14T09:40:13;101771.78;;;22.27;32.80
48926;BME280;39838;59.938;30.642;2023-05-14T09:42:40;101775.81;;;22.07;32.79
48926;BME280;39838;59.938;30.642;2023-05-14T09:45:08;101769.72;;;22.05;32.81
48926;BME280;39838;59.938;30.642;2023-05-14T09:47:36;101777.75;;;22.01;32.46
48926;BME280;39838;59.938;30.642;2023-05-14T09:50:05;101768.34;;;21.91;31.81
48926;BME280;39838;59.938;30.642;2023-05-14T09:52:33;101764.47;;;21.71;31.44
48926;BME280;39838;59.938;30.642;2023-05-14T09:55:02;101753.34;;;21.59;31.42
48926;BME280;39838;59.938;30.642;2023-05-14T09:57:30;101759.13;;;21.39;31.66
48926;BME280;39838;59.938;30.642;2023-05-14T09:59:58;101754.28;;;21.19;31.85
48926;BME280;39838;59.938;30.642;2023-05-14T10:02:29;101759.72;;;21.14;32.20
48926;BME280;39838;59.938;30.642;2023-05-14T10:05:03;101760.69;;;21.10;32.20
48926;BME280;39838;59.938;30.642;2023-05-14T10:07:37;101756.31;;;21.09;32.39
48926;BME280;39838;59.938;30.642;2023-05-14T10:10:11;101749.34;;;21.07;32.70
48926;BME280;39838;59.938;30.642;2023-05-14T10:12:39;101746.69;;;21.05;32.90
48926;BME280;39838;59.938;30.642;2023-05-14T10:15:12;101743.13;;;21.08;32.70
48926;BME280;39838;59.938;30.642;2023-05-14T10:17:48;101725.66;;;21.02;32.46
48926;BME280;39838;59.938;30.642;2023-05-14T10:20:15;101731.50;;;21.15;32.45
48926;BME280;39838;59.938;30.642;2023-05-14T10:22:43;101732.97;;;21.26;32.60
48926;BME280;39838;59.938;30.642;2023-05-14T10:25:13;101732.97;;;21.26;32.82
48926;BME280;39838;59.938;30.642;2023-05-14T10:27:41;101728.75;;;21.19;32.66
48926;BME280;39838;59.938;30.642;2023-05-14T10:30:11;101719.03;;;21.20;32.78
48926;BME280;39838;59.938;30.642;2023-05-14T10:32:39;101725.13;;;21.23;32.64
48926;BME280;39838;59.938;30.642;2023-05-14T10:35:19;101719.84;;;21.23;32.46
48926;BME280;39838;59.938;30.642;2023-05-14T10:37:50;101722.06;;;21.40;32.36
48926;BME280;39838;59.938;30.642;2023-05-14T10:40:19;101715.44;;;21.58;32.50
48926;BME280;39838;59.938;30.642;2023-05-14T10:42:49;101717.50;;;21.79;31.62
48926;BME280;39838;59.938;30.642;2023-05-14T10:45:16;101714.19;;;22.04;31.68
48926;BME280;39838;59.938;30.642;2023-05-14T10:47:45;101701.34;;;22.21;31.58
48926;BME280;39838;59.938;30.642;2023-05-14T10:50:13;101704.50;;;22.34;31.36
48926;BME280;39838;59.938;30.642;2023-05-14T10:52:42;101698.28;;;22.35;30.90
48926;BME280;39838;59.938;30.642;2023-05-14T10:55:12;101695.94;;;22.26;30.30
48926;BME280;39838;59.938;30.642;2023-05-14T10:57:42;101694.16;;;22.26;30.39
48926;BME280;39838;59.938;30.642;2023-05-14T11:00:11;101692.25;;;22.31;30.46
48926;BME280;39838;59.938;30.642;2023-05-14T11:02:41;101685.59;;;22.46;30.23
48926;BME280;39838;59.938;30.642;2023-05-14T11:05:10;101685.13;;;22.61;29.73
48926;BME280;39838;59.938;30.642;2023-05-14T11:07:41;101681.66;;;22.59;29.93
48926;BME280;39838;59.938;30.642;2023-05-14T11:10:09;101687.28;;;22.49;30.26
48926;BME280;39838;59.938;30.642;2023-05-14T11:12:38;101676.84;;;22.44;29.99
48926;BME280;39838;59.938;30.642;2023-05-14T11:15:09;101687.44;;;22.44;29.93
48926;BME280;39838;59.938;30.642;2023-05-14T11:17:40;101683.38;;;22.32;30.03
48926;BME280;39838;59.938;30.642;2023-05-14T11:20:08;101685.41;;;22.24;30.25
48926;BME280;39838;59.938;30.642;2023-05-14T11:22:37;101681.78;;;22.27;31.04
48926;BME280;39838;59.938;30.642;2023-05-14T11:25:06;101683.91;;;22.16;30.94
48926;BME280;39838;59.938;30.642;2023-05-14T11:27:34;101672.66;;;22.06;31.54
48926;BME280;39838;59.938;30.642;2023-05-14T11:30:03;101675.09;;;22.15;31.52
48926;BME280;39838;59.938;30.642;2023-05-14T11:32:36;101674.44;;;22.37;31.06
48926;BME280;39838;59.938;30.642;2023-05-14T11:35:03;101669.16;;;22.37;30.42
48926;BME280;39838;59.938;30.642;2023-05-14T11:37:31;101669.47;;;22.54;30.22
48926;BME280;39838;59.938;30.642;2023-05-14T11:39:59;101669.91;;;22.68;30.55
48926;BME280;39838;59.938;30.642;2023-05-14T11:42:30;101673.09;;;22.79;30.12
48926;BME280;39838;59.938;30.642;2023-05-14T11:44:58;101672.16;;;22.80;30.04
48926;BME280;39838;59.938;30.642;2023-05-14T11:47:28;101660.75;;;22.78;30.06
48926;BME280;39838;59.938;30.642;2023-05-14T11:49:58;101672.56;;;22.96;29.98
48926;BME280;39838;59.938;30.642;2023-05-14T11:52:25;101667.44;;;23.16;29.81
48926;BME280;39838;59.938;30.642;2023-05-14T11:54:52;101667.81;;;23.32;29.48
48926;BME280;39838;59.938;30.642;2023-05-14T11:57:21;101660.25;;;23.47;29.47
48926;BME280;39838;59.938;30.642;2023-05-14T11:59:54;101663.22;;;23.37;29.78
48926;BME280;39838;59.938;30.642;2023-05-14T12:02:25;101659.06;;;23.30;29.88
48926;BME280;39838;59.938;30.642;2023-05-14T12:04:54;101665.88;;;23.37;29.83
48926;BME280;39838;59.938;30.642;2023-05-14T12:07:22;101667.69;;;23.62;29.54
48926;BME280;39838;59.938;30.642;2023-05-14T12:09:50;101659.88;;;24.06;29.50
48926;BME280;39838;59.938;30.642;2023-05-14T12:12:18;101655.25;;;24.34;29.29
48926;BME280;39838;59.938;30.642;2023-05-14T12:14:46;101656.81;;;24.62;29.13
48926;BME280;39838;59.938;30.642;2023-05-14T12:17:15;101651.69;;;24.99;28.54
48926;BME280;39838;59.938;30.642;2023-05-14T12:19:43;101652.25;;;25.29;28.64
48926;BME280;39838;59.938;30.642;2023-05-14T12:22:13;101656.66;;;25.70;28.62
48926;BME280;39838;59.938;30.642;2023-05-14T12:24:51;101641.66;;;26.08;27.78
48926;BME280;39838;59.938;30.642;2023-05-14T12:27:20;101645.88;;;26.50;26.87
48926;BME280;39838;59.938;30.642;2023-05-14T12:29:48;101652.22;;;26.47;26.72
48926;BME280;39838;59.938;30.642;2023-05-14T12:32:18;101639.28;;;26.93;26.54
48926;BME280;39838;59.938;30.642;2023-05-14T12:34:45;101651.28;;;27.54;25.98
48926;BME280;39838;59.938;30.642;2023-05-14T12:37:13;101637.38;;;27.64;25.32
48926;BME280;39838;59.938;30.642;2023-05-14T12:39:40;101644.47;;;27.48;25.40
48926;BME280;39838;59.938;30.642;2023-05-14T12:42:09;101635.22;;;27.20;25.53
48926;BME280;39838;59.938;30.642;2023-05-14T12:44:36;101636.00;;;27.23;25.84
48926;BME280;39838;59.938;30.642;2023-05-14T12:47:04;101637.06;;;27.70;25.59